Terminal Aerodrome Forecast
Issued by NWS Wakefield, VA

Home | Current Version | Previous Version | Text Only | Print | Product List | Glossary On
Versions: 1 2 3 4 5 6 7 8 9 10 11 12 13 14 15 16 17 18 19
000
FTUS41 KAKQ 260500
TAFECG
TAF
KECG 260521Z 2606/2706 14003KT P6SM SCT050
      TEMPO 2608/2612 3SM BR
     FM261500 18008KT P6SM SCT050 SCT080
     FM262000 15009G15KT P6SM BKN060=

USA.gov is the U.S. government's official web portal to all federal, state and local government web resources and services.